Death Valley, California
Current Conditions -  °F | °C
As of 3:52 AM on Wednesday 26 Nov 2014 (Local Time) from KDRA Reporting Station
Clear Clear  
Wind Chill: 36°   Ceiling: Unl
Heat Index: 36°   Visibility: 10mi
Dew Point:   Wind: 3mph
Humidity: 30%   Direction: 20°NNE
Pressure: 30.38"   Gusts: NA
Location:  36.46°N, 116.87°W
Report Text: KDRA 261152Z AUTO 02003KT 10SM CLR 02/M14 A3038 RMK AO2 SLP275 T00221139 10056 20017 58004 $
Loading
Personal Weather Stations






























Interactive Weather Map New forecast layout! Learn more

10-Day Weather Forecast

Advertisements
Track Severe Weather on mobile